Time;durP1;ratioP1;P1;durP2;ratioP2;P2;SDS_P1;SDS_P2;PMS_P1;PMS_P2;Temp;Humidity;BMP_temperature;BMP_pressure;BME280_temperature;BME280_humidity;BME280_pressure;Samples;Min_cycle;Max_cycle;Signal;HPM_P1;HPM_P2
2023/01/01 00:00:45;;;;;;;47.50;25.77;;;13.60;99.90;;;;;;5053722;28;20405;-69
2023/01/01 00:03:12;;;;;;;48.15;25.67;;;13.50;99.90;;;;;;5052663;28;20531;-69
2023/01/01 00:05:38;;;;;;;41.22;23.48;;;13.50;99.90;;;;;;5053084;28;20132;-69
2023/01/01 00:08:03;;;;;;;40.30;24.42;;;13.40;99.90;;;;;;5053594;28;20053;-69
2023/01/01 00:10:29;;;;;;;29.45;15.57;;;13.40;99.90;;;;;;5053759;28;20417;-69
2023/01/01 00:12:56;;;;;;;37.90;17.75;;;13.40;99.90;;;;;;5052767;28;20072;-68
2023/01/01 00:15:22;;;;;;;47.38;24.23;;;13.30;99.90;;;;;;5062640;28;20045;-69
2023/01/01 00:17:48;;;;;;;41.13;20.40;;;13.30;99.90;;;;;;5073427;28;20728;-69
2023/01/01 00:20:13;;;;;;;45.05;26.05;;;13.30;99.90;;;;;;5073509;28;20041;-69
2023/01/01 00:22:39;;;;;;;41.30;23.58;;;13.40;99.90;;;;;;5073303;28;20473;-70
2023/01/01 00:25:05;;;;;;;42.85;24.20;;;13.30;99.90;;;;;;5054419;28;20044;-69
2023/01/01 00:27:31;;;;;;;38.65;21.30;;;13.30;99.90;;;;;;5073276;28;20399;-70
2023/01/01 00:29:56;;;;;;;25.20;17.75;;;13.30;99.90;;;;;;5073356;28;20047;-70
2023/01/01 00:32:22;;;;;;;32.80;17.30;;;13.30;99.90;;;;;;5073099;28;20036;-69
2023/01/01 00:34:47;;;;;;;30.92;17.90;;;13.30;99.90;;;;;;5072504;28;20107;-69
2023/01/01 00:37:14;;;;;;;37.08;17.92;;;13.30;99.90;;;;;;5073136;28;20044;-70
2023/01/01 00:39:40;;;;;;;38.53;18.83;;;13.20;99.90;;;;;;5073038;28;20554;-69
2023/01/01 00:42:05;;;;;;;33.38;18.35;;;13.20;99.90;;;;;;5073102;28;20032;-69
2023/01/01 00:44:31;;;;;;;46.50;22.05;;;13.30;99.90;;;;;;5071763;28;20043;-69
2023/01/01 00:46:57;;;;;;;33.72;17.75;;;13.20;99.90;;;;;;5072105;28;20547;-69
2023/01/01 00:49:22;;;;;;;32.65;16.77;;;13.30;99.90;;;;;;5073187;28;20547;-69
2023/01/01 00:51:48;;;;;;;36.88;18.00;;;13.30;99.90;;;;;;5071902;28;20044;-69
2023/01/01 00:54:13;;;;;;;34.67;16.13;;;13.30;99.90;;;;;;5071978;28;20072;-69
2023/01/01 00:56:39;;;;;;;30.38;17.63;;;13.30;99.90;;;;;;5072644;28;20033;-70
2023/01/01 00:59:05;;;;;;;29.27;15.32;;;13.30;99.90;;;;;;5071606;28;20119;-69
2023/01/01 01:01:32;;;;;;;24.33;14.43;;;13.30;99.90;;;;;;5072796;28;20440;-68
2023/01/01 01:03:57;;;;;;;25.42;13.57;;;13.30;99.90;;;;;;5070233;28;20516;-70
2023/01/01 01:06:23;;;;;;;24.20;14.55;;;13.30;99.90;;;;;;5072115;28;20079;-70
2023/01/01 01:08:49;;;;;;;25.00;13.13;;;13.30;99.90;;;;;;5072560;28;20040;-68
2023/01/01 01:11:17;;;;;;;25.13;12.65;;;13.30;99.90;;;;;;5067630;28;20041;-68
2023/01/01 01:13:45;;;;;;;25.83;12.35;;;13.30;99.90;;;;;;5048780;28;20059;-69
2023/01/01 01:16:29;;;;;;;31.25;13.00;;;13.30;99.90;;;;;;5059397;28;20052;-69
2023/01/01 01:18:58;;;;;;;23.92;12.13;;;13.30;99.90;;;;;;5030923;28;20056;-69
2023/01/01 01:21:25;;;;;;;30.63;12.45;;;13.30;99.90;;;;;;5032376;28;20037;-70
2023/01/01 01:23:51;;;;;;;22.83;11.35;;;13.40;99.90;;;;;;5031539;28;20629;-69
2023/01/01 01:26:19;;;;;;;19.05;10.68;;;13.30;99.90;;;;;;5032318;28;20045;-69
2023/01/01 01:28:45;;;;;;;19.70;11.25;;;13.40;99.90;;;;;;5031977;28;20038;-69
2023/01/01 01:31:11;;;;;;;20.25;10.93;;;13.40;99.90;;;;;;5031830;28;20038;-69
2023/01/01 01:33:37;;;;;;;22.77;11.50;;;13.40;99.90;;;;;;5031890;28;20033;-69
2023/01/01 01:36:04;;;;;;;21.48;10.95;;;13.40;99.90;;;;;;5029891;28;20045;-69
2023/01/01 01:38:29;;;;;;;24.00;11.85;;;13.40;99.90;;;;;;5032249;28;20044;-70
2023/01/01 01:40:55;;;;;;;16.48;10.50;;;13.40;99.90;;;;;;5039780;28;20033;-68
2023/01/01 01:43:25;;;;;;;25.08;10.90;;;13.40;99.90;;;;;;5051423;28;20051;-69
2023/01/01 01:45:55;;;;;;;21.75;11.68;;;13.40;99.90;;;;;;5050666;28;20501;-69
2023/01/01 01:48:22;;;;;;;26.45;14.40;;;13.40;99.90;;;;;;5051964;28;20051;-69
2023/01/01 01:50:51;;;;;;;27.20;13.13;;;13.40;99.90;;;;;;5050167;28;20044;-69
2023/01/01 01:53:23;;;;;;;26.02;12.60;;;13.40;99.90;;;;;;5050291;28;20037;-69
2023/01/01 01:56:03;;;;;;;21.58;12.38;;;13.30;99.90;;;;;;5049457;28;20101;-69
2023/01/01 01:58:31;;;;;;;32.40;13.30;;;13.30;99.90;;;;;;5051569;28;20036;-69
2023/01/01 02:00:56;;;;;;;26.13;12.82;;;13.30;99.90;;;;;;5051573;28;20041;-70
2023/01/01 02:03:25;;;;;;;25.65;13.05;;;13.30;99.90;;;;;;5051522;28;20520;-68
2023/01/01 02:05:51;;;;;;;21.40;12.57;;;13.30;99.90;;;;;;5049140;28;20132;-69
2023/01/01 02:08:19;;;;;;;21.45;12.10;;;13.30;99.90;;;;;;5051259;28;20094;-69
2023/01/01 02:10:45;;;;;;;31.15;13.25;;;13.30;99.90;;;;;;5050699;28;20037;-70
2023/01/01 02:13:10;;;;;;;30.02;14.07;;;13.30;99.90;;;;;;5052382;28;20040;-69
2023/01/01 02:15:47;;;;;;;21.02;12.65;;;13.30;99.90;;;;;;5063194;28;20044;-68
2023/01/01 02:18:17;;;;;;;23.33;12.85;;;13.20;99.90;;;;;;5066427;28;20437;-69
2023/01/01 02:20:48;;;;;;;17.80;11.48;;;13.20;99.90;;;;;;5069605;28;20119;-69
2023/01/01 02:23:16;;;;;;;23.90;11.30;;;13.20;99.90;;;;;;5070911;28;20080;-69
2023/01/01 02:26:14;;;;;;;26.58;11.05;;;13.30;99.90;;;;;;5070434;28;20051;-69
2023/01/01 02:29:02;;;;;;;19.85;10.82;;;13.20;99.90;;;;;;5028334;28;20053;-69
2023/01/01 02:31:33;;;;;;;25.17;11.55;;;13.20;99.90;;;;;;5028371;28;20441;-70
2023/01/01 02:34:03;;;;;;;26.27;10.15;;;13.20;99.90;;;;;;5027843;28;20084;-69
2023/01/01 02:36:32;;;;;;;23.67;9.23;;;13.20;99.90;;;;;;5028554;28;20103;-70
2023/01/01 02:39:00;;;;;;;20.88;9.20;;;13.20;99.90;;;;;;5028507;28;20055;-70
2023/01/01 02:41:30;;;;;;;14.20;8.73;;;13.20;99.90;;;;;;5028383;28;20470;-68
2023/01/01 02:43:56;;;;;;;17.10;8.45;;;13.20;99.90;;;;;;5027659;28;20104;-69
2023/01/01 02:46:21;;;;;;;12.65;7.07;;;13.20;99.90;;;;;;5028467;28;20483;-70
2023/01/01 02:48:51;;;;;;;21.30;8.55;;;13.30;99.90;;;;;;5028409;28;20037;-68
2023/01/01 02:51:44;;;;;;;15.77;6.78;;;13.30;99.90;;;;;;5028372;28;20048;-69
2023/01/01 02:54:17;;;;;;;14.57;6.82;;;13.30;99.90;;;;;;5027487;28;20281;-70
2023/01/01 02:56:49;;;;;;;16.20;6.03;;;13.30;99.90;;;;;;5028326;28;20038;-69
2023/01/01 03:02:44;;;;;;;13.15;6.55;;;13.30;99.90;;;;;;5028050;28;20696;-69
2023/01/01 03:05:17;;;;;;;11.85;4.97;;;13.40;99.90;;;;;;5043049;28;20056;-69
2023/01/01 03:08:13;;;;;;;11.43;4.97;;;13.40;99.90;;;;;;5070842;28;20040;-68
2023/01/01 03:10:45;;;;;;;10.35;4.05;;;13.40;99.90;;;;;;5070781;28;20040;-69
2023/01/01 03:13:21;;;;;;;14.30;4.53;;;13.50;99.90;;;;;;5055074;28;20542;-68
2023/01/01 03:16:01;;;;;;;11.57;3.60;;;13.40;99.90;;;;;;5054846;28;20044;-68
2023/01/01 03:19:09;;;;;;;13.35;4.00;;;13.40;99.90;;;;;;5060678;28;20131;-69
2023/01/01 03:21:52;;;;;;;9.65;3.75;;;13.50;99.90;;;;;;5070522;28;20431;-69
2023/01/01 03:24:29;;;;;;;7.65;2.83;;;13.50;99.90;;;;;;5073424;28;20054;-69
2023/01/01 03:27:00;;;;;;;7.38;3.22;;;13.60;99.90;;;;;;5073026;28;20044;-68
2023/01/01 03:29:30;;;;;;;7.10;2.70;;;13.60;99.90;;;;;;5074522;28;20043;-69
2023/01/01 03:31:58;;;;;;;5.78;2.40;;;13.60;99.90;;;;;;5074216;28;20653;-70
2023/01/01 03:34:32;;;;;;;12.32;3.30;;;13.70;99.90;;;;;;5071960;28;20040;-68
2023/01/01 03:37:03;;;;;;;7.40;2.65;;;13.70;99.90;;;;;;5074573;28;20447;-69
2023/01/01 03:39:36;;;;;;;5.60;2.97;;;13.70;99.90;;;;;;5074136;28;20040;-70
2023/01/01 03:42:07;;;;;;;10.32;2.65;;;13.70;99.90;;;;;;5072663;28;20125;-69
2023/01/01 03:44:37;;;;;;;6.22;2.72;;;13.70;99.90;;;;;;5073002;28;20037;-69
2023/01/01 03:47:04;;;;;;;9.75;2.67;;;13.70;99.90;;;;;;5073915;28;20037;-70
2023/01/01 03:49:30;;;;;;;6.90;2.03;;;13.70;99.90;;;;;;5074075;28;20056;-69
2023/01/01 03:52:25;;;;;;;8.93;2.40;;;13.70;99.90;;;;;;5074047;28;20036;-69
2023/01/01 03:55:13;;;;;;;7.95;3.20;;;13.70;99.90;;;;;;5072706;28;20044;-68
2023/01/01 03:58:07;;;;;;;11.77;2.83;;;13.70;99.90;;;;;;5072706;28;20059;-70
2023/01/01 04:00:36;;;;;;;6.78;2.10;;;13.70;99.90;;;;;;5073263;28;20045;-69
2023/01/01 04:03:17;;;;;;;5.10;2.20;;;13.70;99.90;;;;;;5073784;28;20064;-69
2023/01/01 04:05:43;;;;;;;10.25;2.60;;;13.70;99.90;;;;;;5073002;28;20086;-68
2023/01/01 04:08:10;;;;;;;14.73;4.82;;;13.70;99.90;;;;;;5073786;28;20051;-69
2023/01/01 04:10:41;;;;;;;6.47;2.05;;;13.70;99.90;;;;;;5073357;28;20497;-69
2023/01/01 04:13:06;;;;;;;11.07;3.28;;;13.70;99.90;;;;;;5063598;28;20127;-70
2023/01/01 04:15:34;;;;;;;6.55;1.98;;;13.70;99.90;;;;;;5062789;28;20072;-69
2023/01/01 04:18:00;;;;;;;4.70;2.22;;;13.70;99.90;;;;;;5065009;28;20072;-69
2023/01/01 04:20:26;;;;;;;6.10;2.05;;;13.70;99.90;;;;;;5073228;28;20129;-69
2023/01/01 04:22:56;;;;;;;6.15;2.17;;;13.70;99.90;;;;;;5072022;28;20040;-70
2023/01/01 04:25:21;;;;;;;3.10;1.83;;;13.70;99.90;;;;;;5072668;28;20059;-70
2023/01/01 04:27:47;;;;;;;10.10;2.45;;;13.70;99.90;;;;;;5073363;28;20041;-69
2023/01/01 04:30:14;;;;;;;3.67;1.85;;;13.70;99.90;;;;;;5071809;28;20086;-68
2023/01/01 04:32:39;;;;;;;11.27;1.83;;;13.70;99.90;;;;;;5073423;28;20186;-69
2023/01/01 04:35:07;;;;;;;5.00;2.50;;;13.60;99.90;;;;;;5054162;28;20083;-69
2023/01/01 04:37:36;;;;;;;8.45;2.58;;;13.60;99.90;;;;;;5071748;28;20045;-69
2023/01/01 04:40:03;;;;;;;11.02;2.20;;;13.60;99.90;;;;;;5073130;28;20044;-70
2023/01/01 04:42:28;;;;;;;5.85;2.00;;;13.70;99.90;;;;;;5071481;28;20047;-69
2023/01/01 04:44:54;;;;;;;5.07;1.90;;;13.60;99.90;;;;;;5072308;28;20127;-70
2023/01/01 04:47:19;;;;;;;8.93;2.22;;;13.70;99.90;;;;;;5073142;28;20055;-69
2023/01/01 04:49:45;;;;;;;4.05;2.45;;;13.70;99.90;;;;;;5073280;28;20044;-68
2023/01/01 04:52:10;;;;;;;10.98;2.22;;;13.70;99.90;;;;;;5071410;28;20044;-69
2023/01/01 04:54:36;;;;;;;4.80;1.70;;;13.70;99.90;;;;;;5070770;28;20071;-70
2023/01/01 04:57:01;;;;;;;2.88;1.77;;;13.80;99.90;;;;;;5071321;28;20453;-69
2023/01/01 04:59:29;;;;;;;4.80;1.90;;;13.70;99.90;;;;;;5072795;28;20509;-68
2023/01/01 05:01:55;;;;;;;5.82;1.80;;;13.80;99.90;;;;;;5054997;28;20044;-70
2023/01/01 05:04:20;;;;;;;5.32;1.67;;;13.80;99.90;;;;;;5071819;28;20068;-70
2023/01/01 05:06:46;;;;;;;4.30;1.40;;;13.80;99.90;;;;;;5072612;28;20051;-69
2023/01/01 05:09:12;;;;;;;6.13;1.98;;;13.70;99.90;;;;;;5072848;28;20093;-69
2023/01/01 05:11:37;;;;;;;4.15;1.65;;;13.70;99.90;;;;;;5072282;28;20511;-70
2023/01/01 05:14:03;;;;;;;5.97;1.65;;;13.80;99.90;;;;;;5060138;28;20044;-69
2023/01/01 05:16:31;;;;;;;5.03;2.22;;;13.80;99.90;;;;;;5053300;28;20504;-70
2023/01/01 05:18:57;;;;;;;4.72;1.50;;;13.70;99.90;;;;;;5064441;28;20040;-70
2023/01/01 05:21:34;;;;;;;5.13;2.20;;;13.70;99.90;;;;;;5071169;28;20123;-69
2023/01/01 05:24:05;;;;;;;3.10;1.42;;;13.70;99.90;;;;;;5071616;28;20484;-69
2023/01/01 05:26:34;;;;;;;5.57;1.37;;;13.60;99.90;;;;;;5072663;28;20052;-69
2023/01/01 05:29:00;;;;;;;5.70;1.50;;;13.60;99.90;;;;;;5070780;28;20554;-70
2023/01/01 05:31:29;;;;;;;5.88;1.58;;;13.60;99.90;;;;;;5072484;28;20044;-69
2023/01/01 05:33:56;;;;;;;4.85;1.40;;;13.60;99.90;;;;;;5071425;28;20056;-70
2023/01/01 05:36:27;;;;;;;5.55;1.38;;;13.60;99.90;;;;;;5072362;28;20504;-69
2023/01/01 05:38:53;;;;;;;5.65;1.60;;;13.60;99.90;;;;;;5071865;28;20037;-69
2023/01/01 05:41:21;;;;;;;3.17;1.27;;;13.60;99.90;;;;;;5072136;28;20032;-69
2023/01/01 05:43:46;;;;;;;2.05;1.00;;;13.60;99.90;;;;;;5071042;28;20052;-69
2023/01/01 05:46:19;;;;;;;5.22;1.38;;;13.60;99.90;;;;;;5071448;28;20041;-69
2023/01/01 05:48:45;;;;;;;2.28;1.15;;;13.50;99.90;;;;;;5072001;28;20040;-69
2023/01/01 05:51:14;;;;;;;4.90;1.13;;;13.50;99.90;;;;;;5072101;28;20090;-69
2023/01/01 05:53:40;;;;;;;8.95;1.40;;;13.50;99.90;;;;;;5051378;28;20040;-69
2023/01/01 05:56:06;;;;;;;3.40;1.00;;;13.50;99.90;;;;;;5051624;28;20033;-69
2023/01/01 05:58:33;;;;;;;4.13;1.10;;;13.40;99.90;;;;;;5051793;28;20090;-69
2023/01/01 06:01:14;;;;;;;3.47;1.20;;;13.40;99.90;;;;;;5051864;28;20090;-69
2023/01/01 06:03:40;;;;;;;1.63;1.10;;;13.40;99.90;;;;;;5051542;28;20069;-70
2023/01/01 06:06:15;;;;;;;5.20;1.50;;;13.40;99.90;;;;;;5049665;28;20390;-70
2023/01/01 06:08:41;;;;;;;2.67;1.05;;;13.30;99.90;;;;;;5051664;28;20036;-69
2023/01/01 06:11:10;;;;;;;6.00;1.20;;;13.30;99.90;;;;;;5051723;28;20413;-69
2023/01/01 06:13:36;;;;;;;3.45;1.05;;;13.30;99.90;;;;;;5050127;28;20045;-70
2023/01/01 06:16:02;;;;;;;6.22;1.50;;;13.20;99.90;;;;;;5051089;28;20496;-70
2023/01/01 06:18:30;;;;;;;5.15;1.25;;;13.20;99.90;;;;;;5060307;28;20037;-69
2023/01/01 06:21:13;;;;;;;6.78;1.40;;;13.20;99.90;;;;;;5071770;28;20044;-69
2023/01/01 06:23:39;;;;;;;;;;;13.20;99.90;;;;;;5072098;28;20029;-69
2023/01/01 06:26:10;;;;;;;5.03;1.27;;;13.20;99.90;;;;;;5070856;28;19922;-69
2023/01/01 06:28:37;;;;;;;5.10;1.40;;;13.10;99.90;;;;;;5071602;28;20040;-70
2023/01/01 06:31:04;;;;;;;3.30;1.20;;;13.10;99.90;;;;;;5071043;28;20559;-69
2023/01/01 06:33:31;;;;;;;4.60;2.03;;;13.10;99.90;;;;;;5060153;28;20049;-70
2023/01/01 06:35:57;;;;;;;4.65;1.52;;;13.00;99.90;;;;;;5050604;28;20052;-69
2023/01/01 06:38:22;;;;;;;4.95;1.27;;;13.00;99.90;;;;;;5051143;28;20065;-70
2023/01/01 06:40:59;;;;;;;3.47;1.23;;;13.00;99.90;;;;;;5049938;28;20114;-70
2023/01/01 06:43:25;;;;;;;5.40;1.08;;;13.00;99.90;;;;;;5051123;28;20140;-69
2023/01/01 06:46:17;;;;;;;3.30;1.10;;;13.00;99.90;;;;;;5050254;28;20513;-69
2023/01/01 06:48:44;;;;;;;4.57;1.38;;;13.00;99.90;;;;;;5049697;28;20040;-69
2023/01/01 06:51:15;;;;;;;4.25;1.67;;;13.00;99.90;;;;;;5050899;28;20033;-70
2023/01/01 06:53:40;;;;;;;4.97;1.38;;;13.00;99.90;;;;;;5050963;28;20056;-71
2023/01/01 06:56:07;;;;;;;5.07;1.15;;;12.90;99.90;;;;;;5050569;28;20814;-69
2023/01/01 06:58:33;;;;;;;4.75;1.40;;;12.90;99.90;;;;;;5050735;28;20041;-70
2023/01/01 07:01:06;;;;;;;4.68;1.42;;;12.90;99.90;;;;;;5053882;28;20497;-69
2023/01/01 07:03:33;;;;;;;6.40;1.48;;;12.90;99.90;;;;;;5055035;28;20041;-69
2023/01/01 07:05:58;;;;;;;4.03;1.45;;;12.90;99.90;;;;;;5054196;28;20116;-69
2023/01/01 07:08:24;;;;;;;3.83;1.50;;;12.90;99.90;;;;;;5055386;28;20135;-70
2023/01/01 07:10:49;;;;;;;2.28;1.42;;;12.90;99.90;;;;;;5054986;28;20065;-69
2023/01/01 07:13:15;;;;;;;7.38;1.50;;;12.80;99.90;;;;;;5053897;28;20390;-70
2023/01/01 07:15:42;;;;;;;3.58;1.00;;;12.90;99.90;;;;;;5049240;28;20069;-69
2023/01/01 07:18:08;;;;;;;4.53;1.38;;;12.80;99.90;;;;;;5061790;28;20039;-69
2023/01/01 07:20:33;;;;;;;1.98;1.10;;;12.90;99.90;;;;;;5066283;28;20497;-69
2023/01/01 07:23:01;;;;;;;3.70;1.50;;;12.80;99.90;;;;;;5073607;28;20064;-70
2023/01/01 07:25:26;;;;;;;4.10;1.10;;;12.80;99.90;;;;;;5072685;28;20114;-69
2023/01/01 07:27:52;;;;;;;3.95;1.20;;;12.80;99.90;;;;;;5074991;28;20123;-69
2023/01/01 07:30:18;;;;;;;4.22;1.10;;;12.80;99.90;;;;;;5073545;28;20040;-70
2023/01/01 07:32:43;;;;;;;4.10;1.20;;;12.80;99.90;;;;;;5074640;28;20047;-70
2023/01/01 07:35:09;;;;;;;7.70;1.55;;;12.80;99.90;;;;;;5074104;28;20142;-69
2023/01/01 07:37:35;;;;;;;6.13;1.33;;;12.70;99.90;;;;;;5074751;28;20497;-69
2023/01/01 07:40:00;;;;;;;6.55;1.45;;;12.70;99.90;;;;;;5073874;28;20401;-70
2023/01/01 07:42:26;;;;;;;4.45;1.13;;;12.70;99.90;;;;;;5074975;28;20044;-69
2023/01/01 07:44:51;;;;;;;4.13;1.00;;;12.70;99.90;;;;;;5072899;28;20044;-70
2023/01/01 07:47:22;;;;;;;2.50;1.10;;;12.60;99.90;;;;;;5074660;28;20045;-69
2023/01/01 07:49:48;;;;;;;7.35;1.60;;;12.70;99.90;;;;;;5073506;28;20049;-70
2023/01/01 07:52:14;;;;;;;5.28;1.58;;;12.70;99.90;;;;;;5072954;28;20045;-69
2023/01/01 07:54:39;;;;;;;5.60;1.35;;;12.70;99.90;;;;;;5067844;28;20040;-69
2023/01/01 07:57:05;;;;;;;7.13;2.17;;;12.70;99.90;;;;;;5064776;28;20087;-69
2023/01/01 07:59:30;;;;;;;3.00;1.42;;;12.70;99.90;;;;;;5072804;28;20037;-69
2023/01/01 08:01:56;;;;;;;5.43;1.50;;;12.70;99.90;;;;;;5070843;28;20079;-69
2023/01/01 08:04:21;;;;;;;4.07;1.05;;;12.70;99.90;;;;;;5069997;28;20080;-69
2023/01/01 08:06:47;;;;;;;8.27;1.35;;;12.60;99.90;;;;;;5058126;28;20044;-69
2023/01/01 08:09:13;;;;;;;7.30;1.38;;;12.60;99.90;;;;;;5051712;28;20041;-69
2023/01/01 08:11:38;;;;;;;7.53;1.63;;;12.60;99.90;;;;;;5050625;28;20044;-70
2023/01/01 08:14:04;;;;;;;6.90;1.40;;;12.60;99.90;;;;;;5050633;28;20047;-69
2023/01/01 08:16:29;;;;;;;5.03;1.40;;;12.60;99.90;;;;;;5043542;28;20033;-69
2023/01/01 08:18:55;;;;;;;6.40;1.50;;;12.60;99.90;;;;;;5064485;28;20064;-69
2023/01/01 08:21:20;;;;;;;4.05;1.10;;;12.60;99.90;;;;;;5066178;28;20044;-70
2023/01/01 08:23:46;;;;;;;4.65;1.20;;;12.60;99.90;;;;;;5069553;28;20041;-69
2023/01/01 08:26:15;;;;;;;8.90;2.00;;;12.60;99.90;;;;;;5058217;28;20097;-70
2023/01/01 08:28:41;;;;;;;6.38;1.10;;;12.50;99.90;;;;;;5069027;28;20052;-70
2023/01/01 08:31:06;;;;;;;3.10;1.17;;;12.50;99.90;;;;;;5066191;28;20040;-71
2023/01/01 08:33:32;;;;;;;8.82;1.52;;;12.50;99.90;;;;;;5057123;28;20474;-71
2023/01/01 08:35:58;;;;;;;8.68;1.48;;;12.50;99.90;;;;;;5068665;28;20037;-71
2023/01/01 08:38:24;;;;;;;3.17;1.20;;;12.50;99.90;;;;;;5067760;28;20072;-71
2023/01/01 08:40:49;;;;;;;8.18;1.35;;;12.40;99.90;;;;;;5067611;28;20126;-71
2023/01/01 08:43:15;;;;;;;9.75;1.73;;;12.40;99.90;;;;;;5067655;28;20041;-71
2023/01/01 08:45:41;;;;;;;6.55;1.83;;;12.40;99.90;;;;;;5066813;28;20048;-71
2023/01/01 08:48:06;;;;;;;4.95;1.77;;;12.40;99.90;;;;;;5066145;28;20075;-71
2023/01/01 08:50:32;;;;;;;7.78;1.63;;;12.40;99.90;;;;;;5061922;28;20132;-71
2023/01/01 08:52:58;;;;;;;8.60;1.42;;;12.40;99.90;;;;;;5057368;28;20580;-71
2023/01/01 08:55:23;;;;;;;4.05;1.60;;;12.40;99.90;;;;;;5054657;28;20044;-71
2023/01/01 08:57:49;;;;;;;7.40;1.88;;;12.40;99.90;;;;;;5057505;28;20060;-71
2023/01/01 09:00:16;;;;;;;6.28;1.50;;;12.30;99.90;;;;;;5066884;28;20582;-71
2023/01/01 09:02:42;;;;;;;6.68;1.58;;;12.30;99.90;;;;;;5066711;28;20048;-71
2023/01/01 09:05:09;;;;;;;8.85;1.50;;;12.30;99.90;;;;;;5063974;28;20519;-71
2023/01/01 09:07:34;;;;;;;8.88;1.40;;;12.30;99.90;;;;;;5059237;28;20037;-72
2023/01/01 09:10:00;;;;;;;9.00;2.05;;;12.30;99.90;;;;;;5061959;28;20524;-72
2023/01/01 09:12:25;;;;;;;5.97;1.75;;;12.30;99.90;;;;;;5064023;28;20072;-72
2023/01/01 09:14:51;;;;;;;9.15;2.10;;;12.30;99.90;;;;;;5055916;28;20769;-71
2023/01/01 09:17:16;;;;;;;6.22;1.83;;;12.30;99.90;;;;;;5064872;28;20039;-71
2023/01/01 09:19:42;;;;;;;5.47;2.28;;;12.30;99.90;;;;;;5066451;28;20086;-72
2023/01/01 09:22:09;;;;;;;6.95;1.70;;;12.30;99.90;;;;;;5061712;28;20066;-71
2023/01/01 09:24:35;;;;;;;4.68;1.45;;;12.30;99.90;;;;;;5061043;28;20501;-71
2023/01/01 09:27:01;;;;;;;5.32;1.75;;;12.30;99.90;;;;;;5062735;28;20086;-71
2023/01/01 09:29:26;;;;;;;6.78;1.65;;;12.30;99.90;;;;;;5061477;28;20048;-71
2023/01/01 09:31:52;;;;;;;8.50;1.60;;;12.30;99.90;;;;;;5062071;28;20067;-72
2023/01/01 09:34:17;;;;;;;7.47;1.98;;;12.30;99.90;;;;;;5062007;28;20044;-72
2023/01/01 09:36:43;;;;;;;5.85;1.48;;;12.30;99.90;;;;;;5067066;28;20068;-71
2023/01/01 09:39:11;;;;;;;12.57;1.83;;;12.30;99.90;;;;;;5063411;28;20043;-71
2023/01/01 09:41:45;;;;;;;4.97;1.27;;;12.30;99.90;;;;;;5061714;28;20037;-71
2023/01/01 09:44:48;;;;;;;8.27;1.60;;;12.30;99.90;;;;;;5059465;28;20080;-72
2023/01/01 09:47:39;;;;;;;6.60;1.38;;;12.30;99.90;;;;;;5064108;28;20038;-71
2023/01/01 09:50:19;;;;;;;2.53;1.23;;;12.30;99.90;;;;;;5061953;28;20397;-71
2023/01/01 09:52:59;;;;;;;3.97;1.17;;;12.30;99.90;;;;;;5061648;28;20462;-71
2023/01/01 09:55:50;;;;;;;9.40;1.40;;;12.30;99.90;;;;;;5060781;28;20063;-71
2023/01/01 09:58:23;;;;;;;10.88;1.70;;;12.30;99.90;;;;;;5051815;28;20048;-71
2023/01/01 10:00:53;;;;;;;10.93;3.53;;;12.30;99.90;;;;;;5062469;28;20083;-71
2023/01/01 10:03:51;;;;;;;11.75;1.92;;;12.30;99.90;;;;;;5057429;28;20036;-71
2023/01/01 10:06:50;;;;;;;8.02;1.95;;;12.30;99.90;;;;;;5052394;28;20048;-71
2023/01/01 10:09:23;;;;;;;8.80;1.60;;;12.30;99.90;;;;;;5051033;28;20128;-71
2023/01/01 10:12:04;;;;;;;5.57;1.60;;;12.30;99.90;;;;;;5054244;28;20040;-70
2023/01/01 10:14:42;;;;;;;6.95;1.80;;;12.30;99.90;;;;;;5062265;28;20123;-67
2023/01/01 10:17:18;;;;;;;8.10;1.60;;;12.30;99.90;;;;;;5071373;28;20044;-68
2023/01/01 10:19:57;;;;;;;12.23;2.03;;;12.30;99.90;;;;;;5060529;28;20078;-68
2023/01/01 10:22:28;;;;;;;10.38;2.83;;;12.20;99.90;;;;;;5067508;28;20493;-68
2023/01/01 10:25:00;;;;;;;5.90;1.60;;;12.20;99.90;;;;;;5070372;28;20040;-68
2023/01/01 10:27:42;;;;;;;10.13;2.05;;;12.20;99.90;;;;;;5070016;28;20052;-67
2023/01/01 10:30:17;;;;;;;3.83;1.40;;;12.20;99.90;;;;;;5071048;28;20063;-67
2023/01/01 10:32:47;;;;;;;7.10;1.55;;;12.20;99.90;;;;;;5071018;28;20094;-67
2023/01/01 10:35:16;;;;;;;11.02;1.63;;;12.20;99.90;;;;;;5070006;28;20135;-67
2023/01/01 10:37:42;;;;;;;4.93;1.52;;;12.20;99.90;;;;;;5070854;28;20042;-68
2023/01/01 10:40:18;;;;;;;4.97;1.30;;;12.20;99.90;;;;;;5071055;28;20040;-68
2023/01/01 10:42:50;;;;;;;10.20;2.03;;;12.30;99.90;;;;;;5069400;28;20037;-70
2023/01/01 10:45:19;;;;;;;8.23;2.08;;;12.30;99.90;;;;;;5068708;28;20062;-70
2023/01/01 10:48:23;;;;;;;6.78;2.15;;;12.30;99.90;;;;;;5070903;28;20523;-67
2023/01/01 10:50:50;;;;;;;2.72;1.20;;;12.30;99.90;;;;;;5070526;28;20129;-67
2023/01/01 10:53:24;;;;;;;9.88;1.80;;;12.30;99.90;;;;;;5071005;28;20036;-68
2023/01/01 10:55:57;;;;;;;11.02;2.20;;;12.30;99.90;;;;;;5070017;28;20170;-67
2023/01/01 10:58:36;;;;;;;;;;;12.30;99.90;;;;;;5071452;28;20064;-67
2023/01/01 11:01:04;;;;;;;9.10;1.48;;;12.30;99.90;;;;;;5070562;28;19965;-70
2023/01/01 11:03:31;;;;;;;11.40;1.75;;;12.30;99.90;;;;;;5069252;28;20044;-69
2023/01/01 11:06:21;;;;;;;7.45;2.13;;;12.30;99.90;;;;;;5069768;28;20045;-68
2023/01/01 11:08:50;;;;;;;8.38;2.17;;;12.30;99.90;;;;;;5070880;28;20068;-68
2023/01/01 11:11:31;;;;;;;5.57;1.50;;;12.30;99.90;;;;;;5070627;28;20037;-68
2023/01/01 11:13:59;;;;;;;6.57;1.83;;;12.30;99.90;;;;;;5069843;28;20097;-68
2023/01/01 11:16:27;;;;;;;9.32;1.63;;;12.40;99.90;;;;;;5061905;28;20123;-68
2023/01/01 11:19:01;;;;;;;10.63;1.52;;;12.40;99.90;;;;;;5058236;28;20067;-66
2023/01/01 11:21:26;;;;;;;8.00;1.35;;;12.50;99.90;;;;;;5047652;28;20045;-69
2023/01/01 11:24:18;;;;;;;6.93;1.40;;;12.50;99.90;;;;;;5048153;28;20043;-69
2023/01/01 11:26:44;;;;;;;11.85;1.65;;;12.60;99.90;;;;;;5048915;28;20040;-68
2023/01/01 11:29:27;;;;;;;3.72;1.45;;;12.60;99.90;;;;;;5048878;28;20037;-69
2023/01/01 11:31:55;;;;;;;10.80;1.67;;;12.60;99.90;;;;;;5047143;28;20041;-69
2023/01/01 11:34:26;;;;;;;11.65;1.75;;;12.60;99.90;;;;;;5049078;28;20118;-68
2023/01/01 11:37:04;;;;;;;9.18;2.05;;;12.60;99.90;;;;;;5045151;28;20045;-69
2023/01/01 11:39:34;;;;;;;7.57;1.98;;;12.60;99.90;;;;;;5049213;28;20109;-68
2023/01/01 11:42:00;;;;;;;4.05;1.85;;;12.60;99.90;;;;;;5050336;28;20038;-69
2023/01/01 11:44:36;;;;;;;12.65;1.88;;;12.60;99.90;;;;;;5051186;28;20045;-68
2023/01/01 11:47:05;;;;;;;7.60;1.85;;;12.60;99.90;;;;;;5054211;28;20037;-68
2023/01/01 11:49:31;;;;;;;9.40;1.98;;;12.60;99.90;;;;;;5054024;28;20057;-68
2023/01/01 11:51:58;;;;;;;9.38;1.95;;;12.60;99.90;;;;;;5053760;28;20522;-68
2023/01/01 11:54:31;;;;;;;7.47;1.52;;;12.60;99.90;;;;;;5051091;28;20055;-68
2023/01/01 11:57:15;;;;;;;10.73;2.75;;;12.60;99.90;;;;;;5050776;28;20127;-68
2023/01/01 11:59:59;;;;;;;9.60;1.73;;;12.60;99.90;;;;;;5062089;28;20040;-68
2023/01/01 12:02:39;;;;;;;12.63;1.75;;;12.60;99.90;;;;;;5063158;28;20105;-68
2023/01/01 12:05:08;;;;;;;5.45;1.80;;;12.70;99.90;;;;;;5062292;28;20056;-68
2023/01/01 12:07:37;;;;;;;9.23;1.67;;;12.70;99.90;;;;;;5059810;28;20036;-67
2023/01/01 12:10:12;;;;;;;7.57;1.75;;;12.70;99.90;;;;;;5062604;28;20488;-68
2023/01/01 12:12:47;;;;;;;10.55;2.10;;;12.70;99.90;;;;;;5069785;28;20032;-68
2023/01/01 12:15:46;;;;;;;8.25;1.90;;;12.70;99.90;;;;;;5071746;28;20060;-68
2023/01/01 12:18:20;;;;;;;10.00;1.88;;;12.70;99.90;;;;;;5070108;28;20095;-72
2023/01/01 12:20:57;;;;;;;5.03;1.80;;;12.60;99.90;;;;;;5055620;28;20440;-67
2023/01/01 12:23:23;;;;;;;6.70;1.27;;;12.60;99.90;;;;;;5058400;28;20393;-68
2023/01/01 12:26:17;;;;;;;9.60;1.88;;;12.60;99.90;;;;;;5063516;28;20032;-68
2023/01/01 12:28:57;;;;;;;7.63;2.13;;;12.60;99.90;;;;;;5068159;28;20672;-69
2023/01/01 12:31:32;;;;;;;11.02;2.20;;;12.50;99.90;;;;;;5063685;28;20401;-68
2023/01/01 12:34:14;;;;;;;6.72;2.00;;;12.60;99.90;;;;;;5072228;28;20093;-68
2023/01/01 12:37:04;;;;;;;5.55;2.00;;;12.60;99.90;;;;;;5073076;28;20128;-69
2023/01/01 12:40:08;;;;;;;9.60;1.98;;;12.50;99.90;;;;;;5071617;28;20056;-69
2023/01/01 12:42:49;;;;;;;13.27;2.58;;;12.50;99.90;;;;;;5071712;28;20546;-68
2023/01/01 12:45:15;;;;;;;8.57;2.13;;;12.50;99.90;;;;;;5054565;28;20037;-68
2023/01/01 12:47:49;;;;;;;10.48;2.20;;;12.50;99.90;;;;;;5051750;28;20124;-69
2023/01/01 12:50:40;;;;;;;9.18;2.10;;;12.40;99.90;;;;;;5050187;28;20049;-68
2023/01/01 12:53:47;;;;;;;16.38;2.47;;;12.40;99.90;;;;;;5042624;28;20045;-68
2023/01/01 12:56:30;;;;;;;6.57;2.20;;;12.40;99.90;;;;;;5050537;28;20041;-68
2023/01/01 12:59:17;;;;;;;11.23;2.20;;;12.40;99.90;;;;;;5048268;28;20045;-69
2023/01/01 13:01:44;;;;;;;10.07;2.50;;;12.40;99.90;;;;;;5045688;28;20041;-68